Time;durP1;ratioP1;P1;durP2;ratioP2;P2;SDS_P1;SDS_P2;PMS_P1;PMS_P2;Temp;Humidity;BMP_temperature;BMP_pressure;BME280_temperature;BME280_humidity;BME280_pressure;Samples;Min_cycle;Max_cycle;Signal;HPM_P1;HPM_P2
2022/11/28 00:02:25;;;;;;;10.43;10.07;;;21.40;59.20;;;;;;5035068;28;20437;-50
2022/11/28 00:04:53;;;;;;;10.70;10.40;;;21.40;59.20;;;;;;5036140;28;20461;-50
2022/11/28 00:07:20;;;;;;;10.40;10.00;;;21.40;59.30;;;;;;5054697;28;20539;-50
2022/11/28 00:09:47;;;;;;;9.50;9.20;;;21.40;59.30;;;;;;5054462;28;20444;-53
2022/11/28 00:12:14;;;;;;;10.10;9.80;;;21.40;59.40;;;;;;5054711;28;20446;-52
2022/11/28 00:14:40;;;;;;;10.23;9.93;;;21.40;59.50;;;;;;5054519;28;20492;-55
2022/11/28 00:17:07;;;;;;;10.10;9.80;;;21.40;59.50;;;;;;5048884;28;21008;-51
2022/11/28 00:19:34;;;;;;;10.93;10.53;;;21.40;59.60;;;;;;5034509;28;21043;-50
2022/11/28 00:22:06;;;;;;;10.10;9.80;;;21.40;59.60;;;;;;5034924;28;21032;-52
2022/11/28 00:24:33;;;;;;;10.00;9.60;;;21.30;59.60;;;;;;5037836;28;20890;-53
2022/11/28 00:27:00;;;;;;;10.10;9.80;;;21.40;59.70;;;;;;5054527;28;20539;-54
2022/11/28 00:29:27;;;;;;;10.00;9.60;;;21.30;59.70;;;;;;5054325;28;20444;-52
2022/11/28 00:31:54;;;;;;;9.80;9.50;;;21.30;59.70;;;;;;5054285;28;20454;-52
2022/11/28 00:34:21;;;;;;;10.40;10.10;;;21.30;59.80;;;;;;5052268;28;20480;-53
2022/11/28 00:36:48;;;;;;;10.33;10.03;;;21.30;59.80;;;;;;5034568;28;20461;-51
2022/11/28 00:39:18;;;;;;;10.00;9.70;;;21.30;59.80;;;;;;5034498;28;20540;-51
2022/11/28 00:41:45;;;;;;;9.80;9.50;;;21.30;59.90;;;;;;5034429;28;20544;-50
2022/11/28 00:44:12;;;;;;;9.50;9.30;;;21.30;59.90;;;;;;5034148;28;20516;-51
2022/11/28 00:46:39;;;;;;;10.60;10.17;;;21.30;59.90;;;;;;5037221;28;20905;-50
2022/11/28 00:49:06;;;;;;;10.47;10.13;;;21.30;59.90;;;;;;5053899;28;20949;-52
2022/11/28 00:51:34;;;;;;;10.00;9.80;;;21.30;59.90;;;;;;5053987;28;20531;-51
2022/11/28 00:54:05;;;;;;;9.93;9.63;;;21.30;60.00;;;;;;5053855;28;20488;-52
2022/11/28 00:56:35;;;;;;;11.20;10.90;;;21.30;60.00;;;;;;5053940;28;20456;-54
2022/11/28 00:59:02;;;;;;;10.50;10.00;;;21.30;60.00;;;;;;5048845;28;20441;-51
2022/11/28 01:01:31;;;;;;;10.87;10.47;;;21.20;60.00;;;;;;5053348;28;20445;-50
2022/11/28 01:04:00;;;;;;;9.23;9.03;;;21.20;60.00;;;;;;5053479;28;20462;-50
2022/11/28 01:06:29;;;;;;;10.17;9.77;;;21.30;60.10;;;;;;5053768;28;20535;-50
2022/11/28 01:08:59;;;;;;;11.17;10.77;;;21.20;60.10;;;;;;5053569;28;20447;-55
2022/11/28 01:11:27;;;;;;;10.87;10.57;;;21.20;60.50;;;;;;5045030;28;20445;-50
2022/11/28 01:13:56;;;;;;;10.03;9.73;;;21.20;60.80;;;;;;5033545;28;20927;-52
2022/11/28 01:16:23;;;;;;;10.10;9.80;;;21.20;60.90;;;;;;5033605;28;20536;-54
2022/11/28 01:18:50;;;;;;;10.70;10.40;;;21.20;60.90;;;;;;5033641;28;20444;-51
2022/11/28 01:21:18;;;;;;;10.40;10.00;;;21.10;60.90;;;;;;5033753;28;20536;-51
2022/11/28 01:23:45;;;;;;;10.43;10.03;;;21.10;61.00;;;;;;5034655;28;20504;-52
2022/11/28 01:26:16;;;;;;;9.40;9.10;;;21.10;61.10;;;;;;5033730;28;20471;-51
2022/11/28 01:28:43;;;;;;;10.10;9.80;;;21.10;61.10;;;;;;5033554;28;20899;-55
2022/11/28 01:31:15;;;;;;;10.57;10.20;;;21.10;61.20;;;;;;5036502;28;20536;-51
2022/11/28 01:33:42;;;;;;;9.93;9.63;;;21.10;61.20;;;;;;5081101;23;20483;-58
2022/11/28 01:36:11;;;;;;;10.90;10.60;;;21.10;61.20;;;;;;5081356;28;20478;-55
2022/11/28 01:38:38;;;;;;;9.83;9.53;;;21.10;61.10;;;;;;5073066;28;20449;-59
2022/11/28 01:41:06;;;;;;;9.70;9.40;;;21.10;61.20;;;;;;5072458;28;20832;-56
2022/11/28 01:43:33;;;;;;;10.93;10.53;;;21.10;62.00;;;;;;5069342;28;20479;-55
2022/11/28 01:46:00;;;;;;;9.80;9.50;;;21.10;61.30;;;;;;5052905;28;20535;-56
2022/11/28 01:48:31;;;;;;;9.93;9.63;;;21.10;61.40;;;;;;5052835;28;20487;-57
2022/11/28 01:51:02;;;;;;;10.20;9.93;;;21.10;61.40;;;;;;5052641;28;20491;-58
2022/11/28 01:53:30;;;;;;;10.30;10.00;;;21.10;61.40;;;;;;5052085;28;20486;-59
2022/11/28 01:56:02;;;;;;;10.03;9.73;;;21.10;61.50;;;;;;5052680;28;20476;-57
2022/11/28 01:58:30;;;;;;;10.17;9.87;;;21.00;61.50;;;;;;5052427;28;20807;-58
2022/11/28 02:00:58;;;;;;;10.40;10.10;;;21.00;61.50;;;;;;5052324;28;20446;-59
2022/11/28 02:03:30;;;;;;;10.30;10.00;;;21.00;61.50;;;;;;5052526;28;20523;-56
2022/11/28 02:05:57;;;;;;;9.60;9.30;;;21.00;61.50;;;;;;5052228;28;20449;-57
2022/11/28 02:08:25;;;;;;;9.60;9.40;;;21.00;61.50;;;;;;5052137;28;20487;-58
2022/11/28 02:11:23;;;;;;;10.07;9.67;;;21.00;61.60;;;;;;5052270;28;20466;-56
2022/11/28 02:13:57;;;;;;;9.90;9.60;;;21.00;61.60;;;;;;5051465;28;21031;-59
2022/11/28 02:16:43;;;;;;;10.07;9.77;;;21.00;61.60;;;;;;5052349;28;20847;-57
2022/11/28 02:19:43;;;;;;;10.13;9.83;;;21.00;61.70;;;;;;5051716;28;20527;-57
2022/11/28 02:22:17;;;;;;;10.70;10.10;;;21.00;61.80;;;;;;5052308;28;20468;-55
2022/11/28 02:24:57;;;;;;;10.50;10.10;;;21.00;61.80;;;;;;5052106;28;20539;-55
2022/11/28 02:27:42;;;;;;;10.00;9.70;;;21.00;61.80;;;;;;5052089;28;20536;-57
2022/11/28 02:30:15;;;;;;;10.20;9.90;;;21.00;61.80;;;;;;5051734;28;20536;-57
2022/11/28 02:32:57;;;;;;;9.80;9.50;;;21.00;61.80;;;;;;5052046;28;20448;-54
2022/11/28 02:35:32;;;;;;;9.50;9.27;;;21.00;61.90;;;;;;5051770;28;20472;-57
2022/11/28 02:38:05;;;;;;;10.20;9.90;;;21.00;61.90;;;;;;5051664;28;20446;-59
2022/11/28 02:40:37;;;;;;;9.73;9.43;;;21.00;62.00;;;;;;5051740;28;20450;-57
2022/11/28 02:43:11;;;;;;;10.63;10.23;;;21.00;61.90;;;;;;5051922;28;20963;-58
2022/11/28 02:45:46;;;;;;;10.00;9.70;;;21.00;61.90;;;;;;5051827;28;20472;-56
2022/11/28 02:48:23;;;;;;;9.70;9.33;;;20.90;61.80;;;;;;5051520;28;20526;-56
2022/11/28 02:50:57;;;;;;;9.80;9.60;;;20.90;61.90;;;;;;5051578;28;20535;-59
2022/11/28 02:53:27;;;;;;;10.30;10.00;;;20.90;62.00;;;;;;5051528;28;20563;-59
2022/11/28 02:55:55;;;;;;;9.30;9.00;;;20.90;62.10;;;;;;5051655;28;20448;-55
2022/11/28 02:58:22;;;;;;;8.80;8.60;;;20.90;62.10;;;;;;5051311;28;20440;-59
2022/11/28 03:00:51;;;;;;;9.10;8.90;;;21.00;62.20;;;;;;5051399;28;20475;-55
2022/11/28 03:03:47;;;;;;;9.23;8.93;;;20.90;62.10;;;;;;5051462;28;20455;-56
2022/11/28 03:06:24;;;;;;;10.27;9.97;;;20.90;62.00;;;;;;5051621;28;20864;-54
2022/11/28 03:09:09;;;;;;;9.90;9.60;;;20.90;62.20;;;;;;5051192;28;20820;-55
2022/11/28 03:11:46;;;;;;;9.57;9.27;;;20.90;62.10;;;;;;5051592;28;20458;-55
2022/11/28 03:14:20;;;;;;;9.47;9.27;;;20.90;62.20;;;;;;5051383;28;20492;-57
2022/11/28 03:16:54;;;;;;;9.30;9.10;;;21.00;62.20;;;;;;5051423;28;20619;-59
2022/11/28 03:19:27;;;;;;;8.97;8.67;;;20.90;62.20;;;;;;5051280;28;20984;-56
2022/11/28 03:22:03;;;;;;;9.57;9.27;;;20.90;62.20;;;;;;5050822;28;20944;-54
2022/11/28 03:24:37;;;;;;;9.43;9.13;;;20.90;62.20;;;;;;5051697;28;20460;-54
2022/11/28 03:27:09;;;;;;;9.50;9.20;;;20.90;62.30;;;;;;5055495;28;20538;-58
2022/11/28 03:29:42;;;;;;;9.93;9.63;;;20.90;63.00;;;;;;5055278;28;20443;-54
2022/11/28 03:32:13;;;;;;;9.57;9.27;;;20.90;62.30;;;;;;5055239;28;20535;-57
2022/11/28 03:34:45;;;;;;;9.50;9.20;;;20.90;62.40;;;;;;5054693;28;20537;-57
2022/11/28 03:37:17;;;;;;;9.10;8.90;;;20.90;62.30;;;;;;5055392;28;20494;-57
2022/11/28 03:39:49;;;;;;;9.77;9.47;;;20.90;63.10;;;;;;5055264;28;20536;-56
2022/11/28 03:42:20;;;;;;;8.97;8.73;;;20.90;62.30;;;;;;5055272;28;20443;-56
2022/11/28 03:44:52;;;;;;;9.50;9.20;;;20.90;62.30;;;;;;5054853;28;20990;-55
2022/11/28 03:47:19;;;;;;;9.23;9.03;;;20.90;63.10;;;;;;5055135;28;20480;-59
2022/11/28 03:49:52;;;;;;;9.40;9.10;;;20.90;62.40;;;;;;5054926;28;20475;-56
2022/11/28 03:52:25;;;;;;;9.47;9.17;;;20.90;62.40;;;;;;5055036;28;20443;-56
2022/11/28 03:54:57;;;;;;;10.87;10.37;;;20.90;62.40;;;;;;5054940;28;20487;-58
2022/11/28 03:57:32;;;;;;;10.07;9.77;;;20.90;62.40;;;;;;5054866;28;20547;-57
2022/11/28 04:00:03;;;;;;;10.70;10.20;;;20.90;62.50;;;;;;5054636;28;20530;-56
2022/11/28 04:02:42;;;;;;;11.20;10.80;;;20.90;62.50;;;;;;5054881;28;20472;-59
2022/11/28 04:05:19;;;;;;;11.70;11.33;;;20.90;62.60;;;;;;5054705;28;20491;-57
2022/11/28 04:07:49;;;;;;;11.60;11.30;;;20.90;62.50;;;;;;5055154;28;20527;-57
2022/11/28 04:10:20;;;;;;;11.73;11.43;;;21.00;62.60;;;;;;5054338;28;20535;-58
2022/11/28 04:12:54;;;;;;;11.10;10.70;;;21.00;62.50;;;;;;5054736;28;20462;-58
2022/11/28 04:15:30;;;;;;;12.57;12.17;;;21.00;62.50;;;;;;5054511;28;20490;-56
2022/11/28 04:18:01;;;;;;;11.53;11.23;;;21.00;63.10;;;;;;5054844;28;20534;-58
2022/11/28 04:20:35;;;;;;;11.97;11.67;;;21.00;62.40;;;;;;5054349;28;20864;-57
2022/11/28 04:23:07;;;;;;;12.73;12.23;;;21.00;62.30;;;;;;5054363;28;20448;-57
2022/11/28 04:25:37;;;;;;;11.90;11.47;;;21.00;62.30;;;;;;5054346;28;20884;-58
2022/11/28 04:28:08;;;;;;;13.70;12.80;;;21.10;62.70;;;;;;5054430;28;20538;-56
2022/11/28 04:30:37;;;;;;;12.07;11.67;;;21.10;62.40;;;;;;5054416;28;20932;-56
2022/11/28 04:33:08;;;;;;;12.33;11.93;;;21.10;62.40;;;;;;5053784;28;20448;-57
2022/11/28 04:35:41;;;;;;;12.13;11.73;;;21.10;62.30;;;;;;5053974;28;20487;-59
2022/11/28 04:38:10;;;;;;;11.93;11.60;;;21.10;62.20;;;;;;5053459;28;20444;-54
2022/11/28 04:40:43;;;;;;;12.47;12.13;;;21.20;62.20;;;;;;5053877;28;20450;-55
2022/11/28 04:43:18;;;;;;;12.50;12.10;;;21.20;62.20;;;;;;5053824;28;20491;-55
2022/11/28 04:45:47;;;;;;;12.53;12.13;;;21.20;62.20;;;;;;5054101;28;20435;-58
2022/11/28 04:48:14;;;;;;;12.20;11.80;;;21.20;62.20;;;;;;5053972;28;20539;-59
2022/11/28 04:50:49;;;;;;;12.70;12.27;;;21.20;63.00;;;;;;5053802;28;20455;-54
2022/11/28 04:53:22;;;;;;;12.83;12.47;;;21.20;63.00;;;;;;5053333;28;20491;-56
2022/11/28 04:55:55;;;;;;;12.80;12.40;;;21.20;62.20;;;;;;5053766;28;20519;-58
2022/11/28 04:58:25;;;;;;;12.63;12.23;;;21.20;62.20;;;;;;5053880;28;20519;-57
2022/11/28 05:00:55;;;;;;;13.00;12.60;;;21.20;62.20;;;;;;5053618;28;20487;-55
2022/11/28 05:03:26;;;;;;;12.77;12.33;;;21.20;62.20;;;;;;5033700;28;20877;-58
2022/11/28 05:05:54;;;;;;;13.70;13.30;;;21.20;62.20;;;;;;5033874;28;20469;-57
2022/11/28 05:08:21;;;;;;;13.30;12.90;;;21.20;62.20;;;;;;5033976;28;20444;-59
2022/11/28 05:10:48;;;;;;;12.80;12.30;;;21.20;62.20;;;;;;5033332;28;20447;-56
2022/11/28 05:13:15;;;;;;;12.20;11.90;;;21.20;62.20;;;;;;5034985;28;20477;-54
2022/11/28 05:15:42;;;;;;;12.50;12.10;;;21.30;62.30;;;;;;5053200;28;20511;-53
2022/11/28 05:18:09;;;;;;;13.87;13.47;;;21.30;62.20;;;;;;5052920;28;20818;-54
2022/11/28 05:20:37;;;;;;;13.23;12.73;;;21.30;62.40;;;;;;5053329;28;20471;-53
2022/11/28 05:23:06;;;;;;;13.00;12.60;;;21.30;62.70;;;;;;5053393;28;20456;-53
2022/11/28 05:25:33;;;;;;;13.10;12.70;;;21.30;62.70;;;;;;5052962;28;20468;-52
2022/11/28 05:28:00;;;;;;;13.50;13.10;;;21.30;62.70;;;;;;5053203;28;20448;-52
2022/11/28 05:30:27;;;;;;;13.17;12.77;;;21.30;62.80;;;;;;5053070;28;20622;-54
2022/11/28 05:32:54;;;;;;;13.67;13.27;;;21.30;62.80;;;;;;5053170;28;20927;-53
2022/11/28 05:35:22;;;;;;;14.33;13.93;;;21.30;62.80;;;;;;5052966;28;20855;-53
2022/11/28 05:37:49;;;;;;;13.60;13.20;;;21.30;62.90;;;;;;5053032;28;20448;-54
2022/11/28 05:40:17;;;;;;;14.30;13.70;;;21.30;62.70;;;;;;5052728;28;20440;-53
2022/11/28 05:42:44;;;;;;;13.90;13.30;;;21.30;62.40;;;;;;5052995;28;20530;-53
2022/11/28 05:45:11;;;;;;;14.30;13.80;;;21.40;62.20;;;;;;5052808;28;20461;-54
2022/11/28 05:47:38;;;;;;;14.83;13.80;;;21.50;62.30;;;;;;5052254;28;20448;-58
2022/11/28 05:50:06;;;;;;;16.27;15.30;;;21.50;62.00;;;;;;5052228;28;20451;-53
2022/11/28 05:52:33;;;;;;;14.90;13.77;;;21.50;65.30;;;;;;5050858;28;20821;-58
2022/11/28 05:55:00;;;;;;;15.73;14.57;;;21.60;67.50;;;;;;5051012;28;20490;-56
2022/11/28 05:57:30;;;;;;;15.57;14.40;;;21.70;69.10;;;;;;5052795;28;20476;-57
2022/11/28 05:59:57;;;;;;;15.73;14.30;;;21.80;69.20;;;;;;5052655;28;20444;-56
2022/11/28 06:02:24;;;;;;;15.63;14.30;;;21.90;68.50;;;;;;5052519;28;20440;-55
2022/11/28 06:04:51;;;;;;;15.40;14.40;;;22.00;67.70;;;;;;5052512;28;20888;-57
2022/11/28 06:07:18;;;;;;;14.43;13.40;;;22.00;66.90;;;;;;5052450;28;20539;-57
2022/11/28 06:09:45;;;;;;;16.40;15.20;;;22.00;66.20;;;;;;5052266;28;20499;-58
2022/11/28 06:12:12;;;;;;;15.70;14.40;;;22.10;65.90;;;;;;5052419;28;20440;-54
2022/11/28 06:14:40;;;;;;;16.57;15.13;;;22.20;65.60;;;;;;5052180;28;20510;-57
2022/11/28 06:17:07;;;;;;;15.93;14.53;;;22.20;65.00;;;;;;5052610;28;20436;-54
2022/11/28 06:19:34;;;;;;;15.63;14.40;;;22.30;64.60;;;;;;5052194;28;20535;-58
2022/11/28 06:22:01;;;;;;;15.83;14.60;;;22.40;64.20;;;;;;5052141;28;20494;-55
2022/11/28 06:24:28;;;;;;;16.53;15.30;;;22.40;63.70;;;;;;5052334;28;20460;-59
2022/11/28 06:26:55;;;;;;;17.27;15.83;;;22.40;63.60;;;;;;5052509;28;20927;-56
2022/11/28 06:29:22;;;;;;;16.07;14.70;;;22.40;62.90;;;;;;5051926;28;20451;-58
2022/11/28 06:31:50;;;;;;;15.37;14.37;;;22.40;62.50;;;;;;5052093;28;20476;-56
2022/11/28 06:34:17;;;;;;;14.93;13.73;;;22.50;62.40;;;;;;5051728;28;20499;-54
2022/11/28 06:36:44;;;;;;;14.57;13.50;;;22.40;62.00;;;;;;5051913;28;20900;-54
2022/11/28 06:39:14;;;;;;;14.57;13.83;;;22.50;61.90;;;;;;5051698;28;20982;-55
2022/11/28 06:41:41;;;;;;;15.57;14.27;;;22.50;62.40;;;;;;5051760;28;20947;-57
2022/11/28 06:44:08;;;;;;;14.93;13.97;;;22.50;61.40;;;;;;5051655;28;20467;-57
2022/11/28 06:46:35;;;;;;;18.73;17.23;;;22.50;61.30;;;;;;5051871;28;20502;-59
2022/11/28 06:49:03;;;;;;;15.43;14.63;;;22.60;62.00;;;;;;5051657;28;20445;-58
2022/11/28 06:51:30;;;;;;;15.30;14.53;;;22.60;61.00;;;;;;5051791;28;20679;-56
2022/11/28 06:53:57;;;;;;;15.63;14.70;;;22.70;60.90;;;;;;5051571;28;20545;-54
2022/11/28 06:56:24;;;;;;;14.40;13.40;;;22.70;60.60;;;;;;5051552;28;20570;-54
2022/11/28 06:58:55;;;;;;;14.67;13.53;;;22.70;60.30;;;;;;5051529;28;20527;-55
2022/11/28 07:01:23;;;;;;;14.37;13.37;;;22.70;60.10;;;;;;5051616;28;20447;-55
2022/11/28 07:03:50;;;;;;;14.53;13.93;;;22.70;59.90;;;;;;5051622;28;20573;-56
2022/11/28 07:06:20;;;;;;;14.33;13.63;;;22.70;59.80;;;;;;5051559;28;20475;-60
2022/11/28 07:08:47;;;;;;;14.70;13.70;;;22.70;59.60;;;;;;5051588;28;20452;-56
2022/11/28 07:11:16;;;;;;;13.60;13.00;;;22.70;59.50;;;;;;5051462;28;20440;-56
2022/11/28 07:13:44;;;;;;;13.73;13.10;;;22.80;59.50;;;;;;5051381;28;21104;-58
2022/11/28 07:16:15;;;;;;;14.53;13.53;;;22.90;59.40;;;;;;5051349;28;20479;-56
2022/11/28 07:18:42;;;;;;;14.30;13.60;;;22.90;59.20;;;;;;5051480;28;20440;-56
2022/11/28 07:21:10;;;;;;;15.30;14.50;;;22.90;59.20;;;;;;5051475;28;20533;-55
2022/11/28 07:23:38;;;;;;;14.53;13.83;;;22.90;59.00;;;;;;5051274;28;20508;-59
2022/11/28 07:26:06;;;;;;;15.20;14.50;;;22.90;58.80;;;;;;5051330;28;20436;-54
2022/11/28 07:28:34;;;;;;;15.37;14.17;;;22.90;58.70;;;;;;5051430;28;20526;-58
2022/11/28 07:31:03;;;;;;;14.40;13.60;;;22.90;58.60;;;;;;5051060;28;20444;-55
2022/11/28 07:33:31;;;;;;;14.30;13.67;;;22.90;58.60;;;;;;5051047;28;20487;-57
2022/11/28 07:36:00;;;;;;;14.30;13.60;;;22.90;58.50;;;;;;5051939;28;20480;-54
2022/11/28 07:38:27;;;;;;;14.57;13.57;;;22.90;58.90;;;;;;5051238;28;20999;-51
2022/11/28 07:41:01;;;;;;;14.43;13.60;;;23.00;58.90;;;;;;5051053;28;20531;-56
2022/11/28 07:43:28;;;;;;;14.07;13.50;;;23.10;58.40;;;;;;5051239;28;20531;-51
2022/11/28 07:45:55;;;;;;;13.80;13.20;;;23.10;58.30;;;;;;5051139;28;20441;-53
2022/11/28 07:48:22;;;;;;;14.93;14.23;;;23.10;58.10;;;;;;5051165;28;20444;-50
2022/11/28 07:50:49;;;;;;;14.30;13.80;;;23.10;58.00;;;;;;5050778;28;21013;-55
2022/11/28 07:53:16;;;;;;;13.93;13.40;;;23.10;57.90;;;;;;5051040;28;20505;-51
2022/11/28 07:55:42;;;;;;;14.20;13.60;;;23.10;57.80;;;;;;5051070;28;20921;-50
2022/11/28 07:58:11;;;;;;;13.97;13.30;;;23.20;57.80;;;;;;5051183;28;20440;-52
2022/11/28 08:00:38;;;;;;;13.60;13.00;;;23.10;57.60;;;;;;5050760;28;20472;-51
2022/11/28 08:03:04;;;;;;;14.90;14.20;;;23.10;57.60;;;;;;5051044;28;20531;-52
2022/11/28 08:05:31;;;;;;;14.33;13.60;;;23.10;58.10;;;;;;5050871;28;20898;-54
2022/11/28 08:07:58;;;;;;;14.00;13.30;;;23.10;57.50;;;;;;5050906;28;20536;-50
2022/11/28 08:10:25;;;;;;;12.87;12.37;;;23.10;58.00;;;;;;5050751;28;20533;-51
2022/11/28 08:12:52;;;;;;;14.27;13.73;;;23.10;57.40;;;;;;5053355;28;20455;-51
2022/11/28 08:15:20;;;;;;;14.10;13.60;;;23.20;57.40;;;;;;5054463;28;20484;-51
2022/11/28 08:17:47;;;;;;;14.30;13.50;;;23.20;57.40;;;;;;5054608;28;20448;-50
2022/11/28 08:20:14;;;;;;;13.37;12.70;;;23.20;57.30;;;;;;5054215;28;20444;-55
2022/11/28 08:22:40;;;;;;;14.70;14.20;;;23.20;57.20;;;;;;5054451;28;20527;-50
2022/11/28 08:25:08;;;;;;;14.93;14.33;;;23.20;57.10;;;;;;5054379;28;20492;-51
2022/11/28 08:27:35;;;;;;;14.13;13.47;;;23.20;57.00;;;;;;5054348;28;20450;-50
2022/11/28 08:30:02;;;;;;;13.10;12.60;;;23.20;57.00;;;;;;5054165;28;20831;-55
2022/11/28 08:32:30;;;;;;;13.80;13.40;;;23.20;56.90;;;;;;5054249;28;20448;-50
2022/11/28 08:34:57;;;;;;;13.30;12.80;;;23.20;56.80;;;;;;5053945;28;20939;-52
2022/11/28 08:37:25;;;;;;;14.00;13.43;;;23.20;56.80;;;;;;5054148;28;20878;-52
2022/11/28 08:39:52;;;;;;;14.00;13.30;;;23.20;56.70;;;;;;5054213;28;20458;-56
2022/11/28 08:42:19;;;;;;;14.37;13.83;;;23.30;56.80;;;;;;5054096;28;20531;-51
2022/11/28 08:44:46;;;;;;;13.60;13.20;;;23.20;56.70;;;;;;5054065;28;20468;-50
2022/11/28 08:47:13;;;;;;;13.83;13.10;;;23.30;56.70;;;;;;5053994;28;20452;-50
2022/11/28 08:49:41;;;;;;;14.90;14.30;;;23.30;57.20;;;;;;5053769;28;20455;-55
2022/11/28 08:52:08;;;;;;;13.13;12.63;;;23.30;56.60;;;;;;5053940;28;20440;-57
2022/11/28 08:54:35;;;;;;;13.60;13.20;;;23.30;56.50;;;;;;5053684;28;20472;-50
2022/11/28 08:57:02;;;;;;;14.00;13.57;;;23.30;56.50;;;;;;5053758;28;20480;-56
2022/11/28 08:59:29;;;;;;;14.27;13.67;;;23.30;56.40;;;;;;5053732;28;20451;-50
2022/11/28 09:01:56;;;;;;;13.13;12.70;;;23.30;56.40;;;;;;5053783;28;20476;-50
2022/11/28 09:04:23;;;;;;;13.73;13.27;;;23.30;56.30;;;;;;5053520;28;20460;-52
2022/11/28 09:06:52;;;;;;;12.90;12.50;;;23.30;56.30;;;;;;5053712;28;20448;-52
2022/11/28 09:09:19;;;;;;;13.17;12.77;;;23.30;56.50;;;;;;5053485;28;20448;-53
2022/11/28 09:11:46;;;;;;;13.80;13.30;;;23.30;56.20;;;;;;5053591;28;20444;-50
2022/11/28 09:14:13;;;;;;;13.43;12.90;;;23.30;56.20;;;;;;5053496;28;20837;-54
2022/11/28 09:16:40;;;;;;;13.27;12.77;;;23.30;56.20;;;;;;5053397;28;20598;-50
2022/11/28 09:19:09;;;;;;;13.40;13.00;;;23.40;56.20;;;;;;5052974;28;20445;-54
2022/11/28 09:21:36;;;;;;;13.67;13.17;;;23.40;56.20;;;;;;5053327;28;20448;-50
2022/11/28 09:24:05;;;;;;;13.47;13.07;;;23.40;56.70;;;;;;5053023;28;20467;-52
2022/11/28 09:26:33;;;;;;;12.70;12.30;;;23.40;56.10;;;;;;5053291;28;20476;-51
2022/11/28 09:29:00;;;;;;;13.70;13.23;;;23.40;56.00;;;;;;5053057;28;20448;-52
2022/11/28 09:31:27;;;;;;;13.33;12.90;;;23.40;55.90;;;;;;5053073;28;20447;-51
2022/11/28 09:33:54;;;;;;;13.47;13.07;;;23.40;55.90;;;;;;5052976;28;20487;-51
2022/11/28 09:36:22;;;;;;;14.13;13.53;;;23.40;55.80;;;;;;5053051;28;20482;-51
2022/11/28 09:38:50;;;;;;;13.80;13.20;;;23.40;55.80;;;;;;5052912;28;20479;-51
2022/11/28 09:41:37;;;;;;;13.20;12.80;;;23.40;55.80;;;;;;5053083;28;21022;-53
2022/11/28 09:44:12;;;;;;;13.27;12.77;;;23.40;56.30;;;;;;5052847;28;20503;-55
2022/11/28 09:46:41;;;;;;;13.43;13.03;;;23.40;55.80;;;;;;5052891;28;20490;-51
2022/11/28 09:49:22;;;;;;;13.07;12.57;;;23.40;55.70;;;;;;5052733;28;20539;-50
2022/11/28 09:51:53;;;;;;;12.87;12.43;;;23.40;55.70;;;;;;5052762;28;20998;-55
2022/11/28 09:54:25;;;;;;;13.53;13.03;;;23.50;55.70;;;;;;5052705;28;20468;-53
2022/11/28 09:56:53;;;;;;;13.20;12.60;;;23.50;55.70;;;;;;5052917;28;20479;-56
2022/11/28 09:59:24;;;;;;;13.53;13.03;;;23.50;55.60;;;;;;5052398;28;20482;-54
2022/11/28 10:02:00;;;;;;;13.63;12.97;;;23.50;55.60;;;;;;5052583;28;20531;-59
2022/11/28 10:04:35;;;;;;;13.90;13.40;;;23.50;55.50;;;;;;5052491;28;20547;-54
2022/11/28 10:07:08;;;;;;;13.70;13.20;;;23.50;55.50;;;;;;5052582;28;20523;-56
2022/11/28 10:09:40;;;;;;;13.30;12.80;;;23.50;56.00;;;;;;5052371;28;20788;-59
2022/11/28 10:12:21;;;;;;;14.00;13.50;;;23.50;55.50;;;;;;5052534;28;20488;-57
2022/11/28 10:15:03;;;;;;;14.10;13.50;;;23.50;55.50;;;;;;5052400;28;20835;-60
2022/11/28 10:17:41;;;;;;;13.00;12.60;;;23.50;55.50;;;;;;5052241;28;20575;-58
2022/11/28 10:20:13;;;;;;;13.10;12.70;;;23.50;55.40;;;;;;5052065;28;20539;-57
2022/11/28 10:22:45;;;;;;;12.93;12.53;;;23.50;55.40;;;;;;5052330;28;20768;-58
2022/11/28 10:25:17;;;;;;;13.50;13.10;;;23.50;55.30;;;;;;5052379;28;20460;-57
2022/11/28 10:27:47;;;;;;;13.50;12.90;;;23.60;55.30;;;;;;5052142;28;20877;-57
2022/11/28 10:30:20;;;;;;;12.70;12.40;;;23.60;55.30;;;;;;5051902;28;20810;-57
2022/11/28 10:32:53;;;;;;;13.97;13.47;;;23.60;55.30;;;;;;5051982;28;20484;-54
2022/11/28 10:35:25;;;;;;;13.43;13.03;;;23.60;55.30;;;;;;5051240;28;20563;-58
2022/11/28 10:37:53;;;;;;;13.27;12.77;;;23.50;55.20;;;;;;5052141;28;20809;-58
2022/11/28 10:40:24;;;;;;;13.70;13.20;;;23.50;55.20;;;;;;5051711;28;20448;-57
2022/11/28 10:42:58;;;;;;;13.67;13.20;;;23.50;55.10;;;;;;5051987;28;20535;-57
2022/11/28 10:45:31;;;;;;;13.70;13.20;;;23.50;55.10;;;;;;5051841;28;20903;-57
2022/11/28 10:48:17;;;;;;;13.40;13.00;;;23.60;55.10;;;;;;5051780;28;20448;-56
2022/11/28 10:50:52;;;;;;;13.83;13.30;;;23.60;55.10;;;;;;5051563;28;20534;-55
2022/11/28 10:53:34;;;;;;;13.20;12.73;;;23.60;55.10;;;;;;5051615;28;20450;-55
2022/11/28 10:56:11;;;;;;;13.13;12.70;;;23.60;55.00;;;;;;5051566;28;20570;-58
2022/11/28 10:58:45;;;;;;;13.17;12.77;;;23.60;55.00;;;;;;5051774;28;20811;-54
2022/11/28 11:01:13;;;;;;;13.23;12.83;;;23.60;55.00;;;;;;5051601;28;20494;-56
2022/11/28 11:03:40;;;;;;;13.33;12.93;;;23.60;55.00;;;;;;5051550;28;20488;-58
2022/11/28 11:06:07;;;;;;;14.03;13.53;;;23.60;55.00;;;;;;5051591;28;20440;-59
2022/11/28 11:08:35;;;;;;;13.37;12.97;;;23.60;54.90;;;;;;5051603;28;20447;-56
2022/11/28 11:11:06;;;;;;;13.40;12.90;;;23.60;54.90;;;;;;5051280;28;20446;-56
2022/11/28 11:13:34;;;;;;;13.40;13.00;;;23.60;54.90;;;;;;5051295;28;20464;-55
2022/11/28 11:16:06;;;;;;;13.77;13.27;;;23.60;54.90;;;;;;5051283;28;20575;-53
2022/11/28 11:18:35;;;;;;;13.40;13.00;;;23.60;54.90;;;;;;5051587;28;20856;-56
2022/11/28 11:21:18;;;;;;;13.40;13.00;;;23.60;54.90;;;;;;5051169;28;20505;-56
2022/11/28 11:23:47;;;;;;;13.20;12.80;;;23.60;54.80;;;;;;5051343;28;20459;-58
2022/11/28 11:26:22;;;;;;;13.43;13.03;;;23.70;54.90;;;;;;5051433;28;20523;-58
2022/11/28 11:28:50;;;;;;;13.63;13.13;;;23.60;54.80;;;;;;5051290;28;20530;-56
2022/11/28 11:31:22;;;;;;;13.00;12.60;;;23.70;54.90;;;;;;5051282;28;20488;-56
2022/11/28 11:33:53;;;;;;;13.33;12.83;;;23.70;54.80;;;;;;5051252;28;20479;-60
2022/11/28 11:36:23;;;;;;;13.70;13.30;;;23.70;54.80;;;;;;5051242;28;20475;-56
2022/11/28 11:38:50;;;;;;;13.50;13.10;;;23.70;54.80;;;;;;5051079;28;20856;-58
2022/11/28 11:41:28;;;;;;;13.10;12.70;;;23.60;54.70;;;;;;5051278;28;20446;-55
2022/11/28 11:43:55;;;;;;;13.43;13.03;;;23.70;54.80;;;;;;5051261;28;20467;-55
2022/11/28 11:46:23;;;;;;;13.10;12.70;;;23.70;54.70;;;;;;5053121;28;20811;-55
2022/11/28 11:48:52;;;;;;;13.40;13.00;;;23.70;54.70;;;;;;5055032;28;20466;-56
2022/11/28 11:51:25;;;;;;;13.77;13.27;;;23.70;54.70;;;;;;5055125;28;20460;-59
2022/11/28 11:54:05;;;;;;;12.90;12.50;;;23.70;54.70;;;;;;5054960;28;20502;-57
2022/11/28 11:56:37;;;;;;;13.10;12.70;;;23.70;54.70;;;;;;5055025;28;21002;-55
2022/11/28 11:59:10;;;;;;;12.90;12.50;;;23.70;54.70;;;;;;5055120;28;20539;-59
2022/11/28 12:01:40;;;;;;;13.37;12.97;;;23.70;54.60;;;;;;5054902;28;20981;-56
2022/11/28 12:04:13;;;;;;;13.03;12.63;;;23.70;54.60;;;;;;5055085;28;20543;-57
2022/11/28 12:06:46;;;;;;;13.90;13.50;;;23.70;54.60;;;;;;5054900;28;20789;-58
2022/11/28 12:09:19;;;;;;;12.83;12.43;;;23.70;54.60;;;;;;5054710;28;21014;-55
2022/11/28 12:11:51;;;;;;;14.00;13.60;;;23.70;54.50;;;;;;5054694;28;20810;-58
2022/11/28 12:14:27;;;;;;;12.47;12.17;;;23.70;54.50;;;;;;5054740;28;20543;-59
2022/11/28 12:17:07;;;;;;;12.23;11.93;;;23.70;54.60;;;;;;5054813;28;20908;-58
2022/11/28 12:19:45;;;;;;;12.93;12.53;;;23.70;54.50;;;;;;5054587;28;20582;-59
2022/11/28 12:22:23;;;;;;;12.87;12.47;;;23.70;54.50;;;;;;5054837;28;20498;-54
2022/11/28 12:25:02;;;;;;;12.93;12.53;;;23.70;54.50;;;;;;5054559;28;20460;-57
2022/11/28 12:27:42;;;;;;;13.33;12.93;;;23.70;54.50;;;;;;5054456;28;21008;-59
2022/11/28 12:30:26;;;;;;;13.33;12.93;;;23.70;54.50;;;;;;5054214;28;20867;-57
2022/11/28 12:33:08;;;;;;;13.17;12.77;;;23.80;54.50;;;;;;5054376;28;20522;-55
2022/11/28 12:35:40;;;;;;;13.10;12.70;;;23.70;54.40;;;;;;5054087;28;20514;-58
2022/11/28 12:38:19;;;;;;;13.67;13.27;;;23.80;54.50;;;;;;5054144;28;20480;-55
2022/11/28 12:41:04;;;;;;;12.97;12.57;;;23.80;54.50;;;;;;5053881;28;20535;-56
2022/11/28 12:43:45;;;;;;;12.40;12.10;;;23.80;54.40;;;;;;5054122;28;20526;-53
2022/11/28 12:46:21;;;;;;;12.90;12.50;;;23.70;54.40;;;;;;5054189;28;20436;-54
2022/11/28 12:49:03;;;;;;;13.20;12.80;;;23.70;54.90;;;;;;5053875;28;20534;-58